createdAt,value
2023-04-26T00:02:28.011Z,99760.06
2023-04-26T00:04:58.939Z,99751.06
2023-04-26T00:07:28.788Z,99752.03
2023-04-26T00:09:56.923Z,99737.63
2023-04-26T00:12:25.024Z,99751.06
2023-04-26T00:14:53.236Z,99757.41
2023-04-26T00:17:22.695Z,99748.56
2023-04-26T00:19:51.231Z,99760.06
2023-04-26T00:22:19.252Z,99760.06
2023-04-26T00:24:47.546Z,99753.06
2023-04-26T00:27:15.820Z,99751.06
2023-04-26T00:29:44.024Z,99750.38
2023-04-26T00:32:12.110Z,99754.72
2023-04-26T00:34:41.601Z,99754.72
2023-04-26T00:37:09.665Z,99752.03
2023-04-26T00:39:37.716Z,99754.72
2023-04-26T00:42:05.985Z,99754.72
2023-04-26T00:44:34.040Z,99751.53
2023-04-26T00:47:02.770Z,99757.72
2023-04-26T00:49:31.400Z,99763.75
2023-04-26T00:52:01.112Z,99762.09
2023-04-26T00:54:30.318Z,99753.38
2023-04-26T00:56:58.884Z,99767.44
2023-04-26T00:59:28.230Z,99762.91
2023-04-26T01:01:57.745Z,99585.38
2023-04-26T01:04:27.478Z,99758.41
2023-04-26T01:06:56.563Z,99767.44
2023-04-26T01:09:26.242Z,99763.75
2023-04-26T01:11:56.876Z,99763.75
2023-04-26T01:14:25.467Z,99772.66
2023-04-26T01:16:53.707Z,99761.09
2023-04-26T01:19:22.284Z,99628.63
2023-04-26T01:21:50.576Z,99762.09
2023-04-26T01:24:20.148Z,99758.41
2023-04-26T01:26:48.645Z,99707.28
2023-04-26T01:29:17.984Z,99772.81
2023-04-26T01:31:46.682Z,99776.28
2023-04-26T01:34:15.374Z,99790.53
2023-04-26T01:36:43.730Z,99796.91
2023-04-26T01:39:11.957Z,99801.25
2023-04-26T01:41:41.390Z,99808.41
2023-04-26T01:44:09.565Z,99804.06
2023-04-26T01:46:37.726Z,99790.00
2023-04-26T01:49:06.176Z,99683.97
2023-04-26T01:51:35.081Z,99794.22
2023-04-26T01:54:03.323Z,99787.16
2023-04-26T01:56:31.452Z,99788.00
2023-04-26T01:59:00.905Z,99799.56
2023-04-26T02:01:29.130Z,99804.91
2023-04-26T02:03:57.209Z,99790.00
2023-04-26T02:06:25.347Z,99794.22
2023-04-26T02:08:54.333Z,99794.22
2023-04-26T02:11:23.208Z,99785.41
2023-04-26T02:13:51.327Z,99794.22
2023-04-26T02:16:21.401Z,99799.56
2023-04-26T02:18:50.945Z,99794.22
2023-04-26T02:21:19.480Z,99794.22
2023-04-26T02:23:47.563Z,99778.47
2023-04-26T02:26:16.626Z,99785.34
2023-04-26T02:28:44.979Z,99672.44
2023-04-26T02:31:13.071Z,99788.88
2023-04-26T02:33:42.529Z,99783.50
2023-04-26T02:36:10.804Z,99788.88
2023-04-26T02:38:38.965Z,99789.69
2023-04-26T02:41:07.000Z,99789.69
2023-04-26T02:43:35.176Z,99770.75
2023-04-26T02:46:03.318Z,99772.97
2023-04-26T02:48:31.436Z,99779.97
2023-04-26T02:51:01.066Z,99751.44
2023-04-26T02:53:29.162Z,99624.19
2023-04-26T02:55:57.209Z,99778.16
2023-04-26T02:58:25.285Z,99776.44
2023-04-26T03:00:54.815Z,99779.97
2023-04-26T03:03:23.419Z,99781.81
2023-04-26T03:05:51.977Z,99781.81
2023-04-26T03:08:21.705Z,99784.31
2023-04-26T03:10:49.888Z,99780.84
2023-04-26T03:13:18.004Z,99794.22
2023-04-26T03:15:47.377Z,99641.28
2023-04-26T03:18:15.550Z,99783.50
2023-04-26T03:20:43.926Z,99787.16
2023-04-26T03:23:12.061Z,99780.13
2023-04-26T03:25:41.617Z,99776.44
2023-04-26T03:28:09.755Z,99754.63
2023-04-26T03:30:38.581Z,99762.41
2023-04-26T03:33:06.834Z,99776.44
2023-04-26T03:35:35.037Z,99757.72
2023-04-26T03:38:03.136Z,99757.72
2023-04-26T03:40:31.364Z,99755.34
2023-04-26T03:43:00.882Z,99765.75
2023-04-26T03:45:29.010Z,99773.78
2023-04-26T03:47:57.193Z,99770.13
2023-04-26T03:50:25.303Z,99630.91
2023-04-26T03:52:53.539Z,99771.94
2023-04-26T03:55:21.824Z,99773.78
2023-04-26T03:57:49.953Z,99787.16
2023-04-26T04:00:19.577Z,99782.66
2023-04-26T04:02:47.844Z,99783.50
2023-04-26T04:05:16.123Z,99783.50
2023-04-26T04:07:44.336Z,99773.94
2023-04-26T04:10:12.829Z,99774.78
2023-04-26T04:12:40.927Z,99780.84
2023-04-26T04:15:10.369Z,99776.44
2023-04-26T04:17:39.897Z,99779.81
2023-04-26T04:20:09.710Z,99778.16
2023-04-26T04:22:39.799Z,99783.50
2023-04-26T04:25:09.506Z,99783.50
2023-04-26T04:27:38.298Z,99774.78
2023-04-26T04:30:09.091Z,99783.50
2023-04-26T04:35:08.268Z,99783.50
2023-04-26T04:37:36.425Z,99781.81
2023-04-26T04:40:05.730Z,99785.50
2023-04-26T04:42:35.077Z,99795.88
2023-04-26T04:45:03.517Z,99790.63
2023-04-26T04:47:31.602Z,99797.06
2023-04-26T04:50:00.367Z,99796.91
2023-04-26T04:52:29.872Z,99799.56
2023-04-26T04:54:57.990Z,99793.38
2023-04-26T04:57:26.378Z,99798.72
2023-04-26T04:59:54.656Z,99796.19
2023-04-26T05:02:22.941Z,99785.50
2023-04-26T05:04:51.235Z,99795.88
2023-04-26T05:07:19.423Z,99788.88
2023-04-26T05:09:48.938Z,99799.56
2023-04-26T05:12:17.048Z,99795.88
2023-04-26T05:14:45.172Z,99793.22
2023-04-26T05:17:13.489Z,99790.53
2023-04-26T05:19:41.651Z,99793.22
2023-04-26T05:22:09.924Z,99790.53
2023-04-26T05:24:37.993Z,99801.25
2023-04-26T05:27:07.476Z,99801.25
2023-04-26T05:29:35.623Z,99802.09
2023-04-26T05:32:04.031Z,99801.31
2023-04-26T05:34:32.303Z,99787.63
2023-04-26T05:37:01.027Z,99801.25
2023-04-26T05:39:29.232Z,99798.28
2023-04-26T05:41:57.719Z,99805.44
2023-04-26T05:44:27.336Z,99813.56
2023-04-26T05:46:55.996Z,99824.94
2023-04-26T05:49:24.211Z,99819.41
2023-04-26T05:51:52.524Z,99821.94
2023-04-26T05:54:21.303Z,99829.00
2023-04-26T05:56:49.476Z,99825.31
2023-04-26T05:59:17.614Z,99826.97
2023-04-26T06:01:47.162Z,99819.94
2023-04-26T06:04:15.551Z,99828.69
2023-04-26T06:06:44.298Z,99832.06
2023-04-26T06:09:12.514Z,99833.75
2023-04-26T06:11:40.721Z,99835.44
2023-04-26T06:14:16.876Z,99837.41
2023-04-26T06:16:53.428Z,99841.47
2023-04-26T06:19:21.572Z,99844.97
2023-04-26T06:21:49.956Z,99846.69
2023-04-26T06:24:18.602Z,99843.31
2023-04-26T06:26:46.721Z,99845.81
2023-04-26T06:29:14.801Z,99843.16
2023-04-26T06:31:43.656Z,99843.00
2023-04-26T06:34:14.436Z,99846.53
2023-04-26T06:36:42.607Z,99845.50
2023-04-26T06:39:10.992Z,99843.69
2023-04-26T06:41:39.396Z,99843.84
2023-04-26T06:44:07.549Z,99841.81
2023-04-26T06:46:35.674Z,99837.31
2023-04-26T06:49:03.907Z,99837.31
2023-04-26T06:51:33.339Z,99845.19
2023-04-26T06:54:01.484Z,99857.59
2023-04-26T06:56:29.577Z,99858.44
2023-04-26T06:59:01.541Z,99858.44
2023-04-26T07:01:33.594Z,99860.25
2023-04-26T07:04:03.364Z,99857.59
2023-04-26T07:06:33.698Z,99861.28
2023-04-26T07:09:03.012Z,99868.31
2023-04-26T07:11:31.858Z,99851.50
2023-04-26T07:14:00.193Z,99868.31
2023-04-26T07:16:28.620Z,99874.50
2023-04-26T07:18:58.490Z,99879.88
2023-04-26T07:21:26.933Z,99873.34
2023-04-26T07:23:57.183Z,99877.03
2023-04-26T07:26:26.707Z,99879.03
2023-04-26T07:28:55.554Z,99884.38
2023-04-26T07:31:24.131Z,99882.38
2023-04-26T07:33:52.617Z,99882.38
2023-04-26T07:36:23.059Z,99873.34
2023-04-26T07:38:53.018Z,99880.72
2023-04-26T07:41:22.886Z,99887.75
2023-04-26T07:43:51.187Z,99893.13
2023-04-26T07:46:19.986Z,99882.16
2023-04-26T07:48:48.420Z,99898.47
2023-04-26T07:51:16.577Z,99901.16
2023-04-26T07:53:45.105Z,99901.00
2023-04-26T07:56:13.581Z,99894.78
2023-04-26T07:58:43.247Z,99902.81
2023-04-26T08:01:11.900Z,99908.19
2023-04-26T08:03:40.336Z,99919.91
2023-04-26T08:06:09.176Z,99911.47
2023-04-26T08:08:42.855Z,99920.84
2023-04-26T08:11:11.008Z,99915.78
2023-04-26T08:13:39.184Z,99909.66
2023-04-26T08:16:08.981Z,99920.06
2023-04-26T08:18:37.087Z,99927.09
2023-04-26T08:21:05.309Z,99932.47
2023-04-26T08:23:36.048Z,99930.78
2023-04-26T08:26:04.222Z,99943.47
2023-04-26T08:28:32.289Z,99954.19
2023-04-26T08:31:00.484Z,99951.53
2023-04-26T08:33:29.985Z,99940.97
2023-04-26T08:36:00.019Z,99948.13
2023-04-26T08:38:29.663Z,99949.16
2023-04-26T08:41:02.137Z,99950.16
2023-04-26T08:43:30.674Z,99952.84
2023-04-26T08:46:00.857Z,99946.41
2023-04-26T08:48:35.509Z,99951.13
2023-04-26T08:51:05.415Z,99944.81
2023-04-26T08:53:36.459Z,99951.13
2023-04-26T08:56:06.546Z,99961.19
2023-04-26T08:58:34.734Z,99966.38
2023-04-26T09:01:04.195Z,99971.59
2023-04-26T09:03:34.658Z,99967.19
2023-04-26T09:06:05.448Z,99970.88
2023-04-26T09:08:37.823Z,99972.56
2023-04-26T09:11:06.065Z,99979.63
2023-04-26T09:13:34.307Z,99971.75
2023-04-26T09:16:04.822Z,99978.78
2023-04-26T09:18:35.011Z,99983.28
2023-04-26T09:21:05.363Z,99979.22
2023-04-26T09:23:33.892Z,99994.00
2023-04-26T09:26:17.914Z,99990.34
2023-04-26T09:28:46.547Z,99988.63
2023-04-26T09:31:38.482Z,99988.63
2023-04-26T09:34:08.795Z,99984.88
2023-04-26T09:36:52.659Z,99991.16
2023-04-26T09:39:32.981Z,99990.34
2023-04-26T09:42:02.062Z,100001.06
2023-04-26T09:44:31.193Z,99988.63
2023-04-26T09:47:01.777Z,100002.72
2023-04-26T09:49:33.372Z,99997.38
2023-04-26T09:52:05.675Z,99994.84
2023-04-26T09:54:41.736Z,99999.03
2023-04-26T09:57:10.142Z,99992.31
2023-04-26T09:59:45.973Z,100004.53
2023-04-26T10:02:20.031Z,100013.44
2023-04-26T10:04:51.675Z,100010.06
2023-04-26T10:07:22.999Z,100005.84
2023-04-26T10:09:51.488Z,100014.03
2023-04-26T10:12:21.279Z,99986.03
2023-04-26T10:14:50.043Z,100023.38
2023-04-26T10:17:20.824Z,100032.44
2023-04-26T10:19:53.815Z,100028.19
2023-04-26T10:22:25.779Z,100024.69
2023-04-26T10:24:55.947Z,100036.38
2023-04-26T10:27:49.172Z,100034.72
2023-04-26T10:30:18.234Z,100038.38
2023-04-26T10:33:14.992Z,100035.88
2023-04-26T10:36:03.988Z,100044.03
2023-04-26T10:38:32.866Z,100050.00
2023-04-26T10:41:36.187Z,100038.38
2023-04-26T10:44:41.420Z,100040.78
2023-04-26T10:47:23.336Z,100043.44
2023-04-26T10:49:51.963Z,100050.47
2023-04-26T10:52:23.345Z,100052.16
2023-04-26T10:54:56.640Z,100042.03
2023-04-26T10:57:45.975Z,100061.88
2023-04-26T11:00:31.353Z,100060.88
2023-04-26T11:03:04.807Z,100059.06
2023-04-26T11:05:56.620Z,100062.56
2023-04-26T11:08:30.636Z,100069.63
2023-04-26T11:11:10.913Z,100074.97
2023-04-26T11:13:39.991Z,100077.66
2023-04-26T11:16:09.615Z,100075.81
2023-04-26T11:18:40.047Z,100079.34
2023-04-26T11:21:08.509Z,100078.31
2023-04-26T11:23:38.283Z,100083.69
2023-04-26T11:26:08.519Z,100083.69
2023-04-26T11:28:38.135Z,100071.91
2023-04-26T11:31:07.618Z,100071.75
2023-04-26T11:33:35.729Z,100087.06
2023-04-26T11:36:04.467Z,100081.72
2023-04-26T11:38:32.540Z,100081.72
2023-04-26T11:41:03.232Z,100085.69
2023-04-26T11:43:35.607Z,100089.91
2023-04-26T11:46:04.824Z,100090.75
2023-04-26T11:48:34.055Z,100106.81
2023-04-26T11:51:04.315Z,100097.78
2023-04-26T11:53:39.390Z,100089.91
2023-04-26T11:56:17.902Z,100111.16
2023-04-26T11:58:47.402Z,100096.78
2023-04-26T12:01:21.899Z,100100.59
2023-04-26T12:03:52.326Z,100076.47
2023-04-26T12:06:20.889Z,100107.50
2023-04-26T12:08:53.060Z,100111.03
2023-04-26T12:11:22.937Z,100113.84
2023-04-26T12:13:51.059Z,100120.88
2023-04-26T12:16:26.357Z,100126.25
2023-04-26T12:18:56.985Z,100136.94
2023-04-26T12:21:28.147Z,100131.59
2023-04-26T12:23:57.954Z,100138.63
2023-04-26T12:26:45.827Z,100144.84
2023-04-26T12:29:13.959Z,100140.34
2023-04-26T12:31:42.215Z,100134.97
2023-04-26T12:34:10.461Z,100149.34
2023-04-26T12:36:38.600Z,100151.06
2023-04-26T12:39:07.044Z,100147.66
2023-04-26T12:41:35.165Z,100155.69
2023-04-26T12:44:04.717Z,100146.00
2023-04-26T12:46:32.905Z,100157.53
2023-04-26T12:49:01.175Z,100155.03
2023-04-26T12:51:30.039Z,100158.69
2023-04-26T12:53:58.158Z,100154.03
2023-04-26T12:56:26.616Z,100156.72
2023-04-26T12:58:54.788Z,100145.00
2023-04-26T13:01:24.330Z,100158.38
2023-04-26T13:03:52.563Z,100158.38
2023-04-26T13:06:21.023Z,100164.59
2023-04-26T13:08:49.219Z,100172.47
2023-04-26T13:11:18.163Z,100164.28
2023-04-26T13:13:46.429Z,100161.78
2023-04-26T13:16:14.691Z,100152.03
2023-04-26T13:18:44.705Z,100158.09
2023-04-26T13:21:13.372Z,100156.13
2023-04-26T13:23:41.498Z,100169.50
2023-04-26T13:26:09.684Z,100172.19
2023-04-26T13:28:38.094Z,100164.16
2023-04-26T13:31:06.587Z,100163.16
2023-04-26T13:33:34.836Z,100166.81
2023-04-26T13:36:04.474Z,100173.88
2023-04-26T13:38:33.062Z,100168.22
2023-04-26T13:41:01.419Z,100169.88
2023-04-26T13:43:29.578Z,100177.25
2023-04-26T13:45:57.933Z,100182.75
2023-04-26T13:48:26.062Z,100177.53
2023-04-26T13:50:56.333Z,100184.88
2023-04-26T13:53:26.263Z,100192.19
2023-04-26T13:55:54.423Z,100179.81
2023-04-26T13:58:22.523Z,100181.81
2023-04-26T14:00:50.725Z,100190.00
2023-04-26T14:03:18.967Z,100187.47
2023-04-26T14:05:47.112Z,100187.47
2023-04-26T14:08:15.384Z,100187.75
2023-04-26T14:10:44.988Z,100181.69
2023-04-26T14:13:13.074Z,100188.75
2023-04-26T14:15:41.453Z,100187.75
2023-04-26T14:18:09.828Z,100187.75
2023-04-26T14:20:38.056Z,100191.41
2023-04-26T14:23:06.311Z,100189.75
2023-04-26T14:25:34.382Z,100188.06
2023-04-26T14:28:04.244Z,100182.59
2023-04-26T14:30:32.337Z,100191.72
2023-04-26T14:33:00.451Z,100188.06
2023-04-26T14:35:28.542Z,100191.72
2023-04-26T14:37:56.817Z,100191.72
2023-04-26T14:40:25.305Z,100182.00
2023-04-26T14:42:53.392Z,100190.03
2023-04-26T14:45:30.385Z,100190.03
2023-04-26T14:48:06.033Z,100191.03
2023-04-26T14:50:34.138Z,100195.38
2023-04-26T14:53:02.280Z,100189.19
2023-04-26T14:55:30.536Z,100188.34
2023-04-26T14:57:58.664Z,100199.06
2023-04-26T15:00:30.783Z,100187.50
2023-04-26T15:02:59.171Z,100192.00
2023-04-26T15:05:27.916Z,100175.13
2023-04-26T15:07:57.055Z,100185.81
2023-04-26T15:10:25.198Z,100174.25
2023-04-26T15:12:53.271Z,100183.28
2023-04-26T15:15:21.356Z,100181.59
2023-04-26T15:17:50.971Z,100186.94
2023-04-26T15:20:19.228Z,100185.97
2023-04-26T15:22:47.279Z,100187.78
2023-04-26T15:25:15.600Z,100188.66
2023-04-26T15:27:43.985Z,100185.97
2023-04-26T15:30:12.766Z,100199.38
2023-04-26T15:32:40.886Z,100197.66
2023-04-26T15:35:15.167Z,100186.94
2023-04-26T15:37:44.220Z,100192.28
2023-04-26T15:40:13.133Z,100189.63
2023-04-26T15:42:41.566Z,100186.94
2023-04-26T15:45:10.559Z,100181.59
2023-04-26T15:47:38.676Z,100174.56
2023-04-26T15:50:08.120Z,100173.69
2023-04-26T15:52:39.258Z,100181.06
2023-04-26T15:55:08.322Z,100186.25
2023-04-26T15:57:36.405Z,100186.94
2023-04-26T16:00:06.224Z,100185.25
2023-04-26T16:02:34.450Z,100182.59
2023-04-26T16:05:02.788Z,100176.22
2023-04-26T16:07:31.381Z,100184.41
2023-04-26T16:10:01.436Z,100185.25
2023-04-26T16:12:29.534Z,100182.59
2023-04-26T16:14:58.985Z,100198.66
2023-04-26T16:17:27.065Z,100188.94
2023-04-26T16:19:55.176Z,100186.41
2023-04-26T16:22:23.246Z,100188.94
2023-04-26T16:24:51.345Z,100178.22
2023-04-26T16:27:21.604Z,100178.22
2023-04-26T16:29:49.715Z,100176.81
2023-04-26T16:32:17.809Z,100176.53
2023-04-26T16:34:45.912Z,100192.59
2023-04-26T16:37:14.778Z,100175.84
2023-04-26T16:39:42.914Z,100176.53
2023-04-26T16:42:11.201Z,100179.19
2023-04-26T16:44:40.873Z,100174.84
2023-04-26T16:47:09.008Z,100173.16
2023-04-26T16:49:37.182Z,100201.63
2023-04-26T16:52:05.236Z,100185.56
2023-04-26T16:54:33.325Z,100189.91
2023-04-26T16:57:03.623Z,100181.88
2023-04-26T16:59:31.788Z,100149.84
2023-04-26T17:02:01.756Z,100187.25
2023-04-26T17:04:30.179Z,100174.28
2023-04-26T17:06:58.397Z,100189.91
2023-04-26T17:09:26.798Z,100187.25
2023-04-26T17:11:54.902Z,100185.56
2023-04-26T17:14:23.045Z,100180.22
2023-04-26T17:16:51.296Z,100198.94
2023-04-26T17:19:20.804Z,100194.88
2023-04-26T17:21:49.529Z,100189.25
2023-04-26T17:24:17.706Z,100205.84
2023-04-26T17:26:46.717Z,100199.38
2023-04-26T17:29:14.848Z,100200.75
2023-04-26T17:31:43.556Z,100200.44
2023-04-26T17:34:11.795Z,100207.47
2023-04-26T17:36:41.378Z,100192.81
2023-04-26T17:39:10.037Z,100198.19
2023-04-26T17:41:38.392Z,100210.56
2023-04-26T17:44:06.883Z,100199.16
2023-04-26T17:46:35.057Z,100198.47
2023-04-26T17:49:03.225Z,100196.09
2023-04-26T17:51:31.418Z,100193.72
2023-04-26T17:54:00.985Z,100192.00
2023-04-26T17:56:29.206Z,100202.72
2023-04-26T17:58:57.380Z,100200.19
2023-04-26T18:01:25.468Z,100197.66
2023-04-26T18:03:53.749Z,100199.66
2023-04-26T18:06:22.835Z,100201.34
2023-04-26T18:08:51.032Z,100206.69
2023-04-26T18:11:21.329Z,100217.41
2023-04-26T18:13:49.488Z,100201.34
2023-04-26T18:16:18.037Z,100205.00
2023-04-26T18:18:46.271Z,100209.50
2023-04-26T18:21:14.367Z,100214.00
2023-04-26T18:23:42.794Z,100206.69
2023-04-26T18:26:11.035Z,100214.88
2023-04-26T18:28:40.868Z,100201.63
2023-04-26T18:31:09.344Z,100208.66
2023-04-26T18:33:37.574Z,100210.38
2023-04-26T18:36:06.126Z,100211.75
2023-04-26T18:38:34.196Z,100216.81
2023-04-26T18:41:02.322Z,100214.00
2023-04-26T18:43:30.965Z,100212.84
2023-04-26T18:46:00.700Z,100218.19
2023-04-26T18:48:28.970Z,100213.53
2023-04-26T18:50:57.505Z,100207.19
2023-04-26T18:53:25.649Z,100214.25
2023-04-26T18:55:53.869Z,100221.28
2023-04-26T18:58:21.950Z,100217.91
2023-04-26T19:00:50.711Z,100225.25
2023-04-26T19:03:20.591Z,100226.22
2023-04-26T19:05:49.112Z,100229.19
2023-04-26T19:08:18.459Z,100232.03
2023-04-26T19:10:47.912Z,100218.78
2023-04-26T19:13:16.160Z,100229.50
2023-04-26T19:15:44.253Z,100222.47
2023-04-26T19:18:12.744Z,100231.50
2023-04-26T19:20:42.258Z,100221.06
2023-04-26T19:23:10.298Z,100221.91
2023-04-26T19:25:38.427Z,100226.44
2023-04-26T19:28:06.650Z,100221.06
2023-04-26T19:30:34.933Z,100224.72
2023-04-26T19:33:03.359Z,100224.72
2023-04-26T19:35:31.477Z,100224.72
2023-04-26T19:38:01.011Z,100230.09
2023-04-26T19:40:29.069Z,100223.06
2023-04-26T19:42:57.536Z,100235.44
2023-04-26T19:45:25.583Z,100230.38
2023-04-26T19:47:53.792Z,100229.78
2023-04-26T19:50:21.931Z,100240.22
2023-04-26T19:52:50.004Z,100232.88
2023-04-26T19:55:19.893Z,100233.88
2023-04-26T19:57:48.462Z,100247.81
2023-04-26T20:00:17.093Z,100243.31
2023-04-26T20:02:45.342Z,100232.59
2023-04-26T20:05:13.666Z,100244.97
2023-04-26T20:07:41.880Z,100239.63
2023-04-26T20:10:11.159Z,100234.56
2023-04-26T20:12:42.012Z,100236.94
2023-04-26T20:15:12.238Z,100228.91
2023-04-26T20:17:40.313Z,100230.91
2023-04-26T20:20:10.169Z,100222.72
2023-04-26T20:22:38.281Z,100218.19
2023-04-26T20:25:07.355Z,100232.28
2023-04-26T20:27:35.484Z,100229.63
2023-04-26T20:30:05.645Z,100236.78
2023-04-26T20:32:33.798Z,100235.97
2023-04-26T20:35:01.931Z,100226.94
2023-04-26T20:37:30.131Z,100235.69
2023-04-26T20:39:58.651Z,100237.50
2023-04-26T20:42:27.903Z,100235.69
2023-04-26T20:44:56.640Z,100230.63
2023-04-26T20:47:26.182Z,100239.63
2023-04-26T20:49:54.284Z,100233.59
2023-04-26T20:52:22.384Z,100228.81
2023-04-26T20:54:50.436Z,100148.66
2023-04-26T20:57:18.560Z,100232.88
2023-04-26T20:59:46.666Z,100240.22
2023-04-26T21:02:14.821Z,100232.63
2023-04-26T21:04:44.533Z,100236.84
2023-04-26T21:07:12.814Z,100238.53
2023-04-26T21:09:41.887Z,100237.81
2023-04-26T21:12:10.033Z,100231.50
2023-04-26T21:14:38.181Z,100236.00
2023-04-26T21:17:07.132Z,100235.16
2023-04-26T21:19:35.341Z,100240.50
2023-04-26T21:22:04.778Z,100244.19
2023-04-26T21:24:32.889Z,100250.38
2023-04-26T21:27:00.958Z,100246.00
2023-04-26T21:29:29.551Z,100245.03
2023-04-26T21:31:57.662Z,100253.22
2023-04-26T21:34:25.780Z,100243.31
2023-04-26T21:36:53.865Z,100251.50
2023-04-26T21:39:23.330Z,100232.38
2023-04-26T21:41:51.409Z,100247.84
2023-04-26T21:44:20.090Z,100244.47
2023-04-26T21:46:48.187Z,100242.50
2023-04-26T21:49:16.411Z,100244.19
2023-04-26T21:51:44.494Z,100237.97
2023-04-26T21:54:13.886Z,100234.63
2023-04-26T21:56:43.424Z,100232.09
2023-04-26T21:59:12.549Z,100235.44
2023-04-26T22:01:41.548Z,100251.50
2023-04-26T22:04:10.582Z,100265.88
2023-04-26T22:06:39.193Z,100253.09
2023-04-26T22:09:09.794Z,100264.22
2023-04-26T22:11:38.224Z,100271.25
2023-04-26T22:14:08.638Z,100293.66
2023-04-26T22:16:37.310Z,100281.97
2023-04-26T22:19:05.433Z,100285.63
2023-04-26T22:21:33.602Z,100285.63
2023-04-26T22:24:02.876Z,100268.44
2023-04-26T22:26:31.179Z,100278.56
2023-04-26T22:29:00.320Z,100267.84
2023-04-26T22:31:30.340Z,100271.53
2023-04-26T22:33:58.455Z,100278.56
2023-04-26T22:36:27.081Z,100271.53
2023-04-26T22:38:55.214Z,100269.84
2023-04-26T22:41:23.632Z,100269.84
2023-04-26T22:43:53.292Z,100262.78
2023-04-26T22:46:21.937Z,100262.78
2023-04-26T22:48:51.438Z,100261.81
2023-04-26T22:51:19.558Z,100261.13
2023-04-26T22:53:47.674Z,100268.16
2023-04-26T22:56:15.928Z,100275.22
2023-04-26T22:58:44.020Z,100266.19
2023-04-26T23:01:12.124Z,100276.03
2023-04-26T23:03:40.320Z,100275.22
2023-04-26T23:06:10.067Z,100277.91
2023-04-26T23:08:38.471Z,100272.53
2023-04-26T23:11:09.349Z,100273.50
2023-04-26T23:13:38.057Z,100271.81
2023-04-26T23:16:06.766Z,100275.34
2023-04-26T23:18:35.268Z,100275.50
2023-04-26T23:21:03.844Z,100274.50
2023-04-26T23:23:33.338Z,100278.19
2023-04-26T23:26:01.413Z,100282.53
2023-04-26T23:28:29.576Z,100275.50
2023-04-26T23:30:57.631Z,100281.69
2023-04-26T23:33:25.708Z,100286.22
2023-04-26T23:35:56.103Z,100288.03
2023-04-26T23:38:24.450Z,100287.03
2023-04-26T23:40:54.487Z,100282.81
2023-04-26T23:43:22.725Z,100283.53
2023-04-26T23:45:51.398Z,100291.56
2023-04-26T23:48:19.555Z,100296.06
2023-04-26T23:50:47.804Z,100289.84
2023-04-26T23:53:15.848Z,100296.91
2023-04-26T23:55:44.328Z,100291.56
2023-04-26T23:58:14.166Z,100296.63
